createdAt,value
2022-10-31T00:00:48.456Z,12.00
2022-10-31T00:03:15.534Z,12.00
2022-10-31T00:05:43.527Z,12.00
2022-10-31T00:08:10.419Z,12.00
2022-10-31T00:10:44.939Z,12.00
2022-10-31T00:13:12.288Z,12.00
2022-10-31T00:15:39.815Z,12.00
2022-10-31T00:18:07.526Z,12.00
2022-10-31T00:20:37.582Z,12.00
2022-10-31T00:23:04.948Z,12.00
2022-10-31T00:25:34.436Z,12.00
2022-10-31T00:28:02.082Z,12.00
2022-10-31T00:30:29.394Z,12.00
2022-10-31T00:32:56.567Z,12.00
2022-10-31T00:35:23.635Z,12.00
2022-10-31T00:41:38.675Z,12.00
2022-10-31T00:44:11.964Z,12.00
2022-10-31T00:46:39.575Z,11.90
2022-10-31T00:49:06.371Z,11.90
2022-10-31T00:51:33.638Z,11.90
2022-10-31T00:54:00.782Z,11.90
2022-10-31T00:56:27.595Z,11.90
2022-10-31T00:58:54.585Z,11.90
2022-10-31T01:01:21.857Z,11.90
2022-10-31T01:03:49.890Z,11.90
2022-10-31T01:06:17.072Z,11.90
2022-10-31T01:08:44.247Z,11.90
2022-10-31T01:11:15.186Z,11.80
2022-10-31T01:13:42.431Z,11.90
2022-10-31T01:16:11.263Z,11.90
2022-10-31T01:18:38.611Z,11.80
2022-10-31T01:21:06.793Z,11.90
2022-10-31T01:23:34.103Z,11.90
2022-10-31T01:26:02.003Z,11.90
2022-10-31T01:28:28.944Z,11.90
2022-10-31T01:30:55.758Z,11.90
2022-10-31T01:33:22.598Z,11.90
2022-10-31T01:35:49.514Z,11.90
2022-10-31T01:38:16.452Z,11.90
2022-10-31T01:40:44.398Z,11.90
2022-10-31T01:43:14.864Z,11.90
2022-10-31T01:45:42.909Z,11.90
2022-10-31T01:48:17.939Z,11.90
2022-10-31T01:50:46.446Z,11.90
2022-10-31T01:53:13.671Z,11.90
2022-10-31T01:55:42.458Z,11.90
2022-10-31T01:58:12.740Z,11.90
2022-10-31T02:00:40.420Z,11.90
2022-10-31T02:03:07.383Z,11.90
2022-10-31T02:05:34.617Z,11.90
2022-10-31T02:08:01.449Z,11.90
2022-10-31T02:10:30.211Z,12.00
2022-10-31T02:12:59.243Z,12.00
2022-10-31T02:15:26.966Z,12.00
2022-10-31T02:17:53.910Z,12.00
2022-10-31T02:20:22.638Z,12.00
2022-10-31T02:22:50.108Z,12.00
2022-10-31T02:25:23.065Z,12.00
2022-10-31T02:27:53.291Z,12.00
2022-10-31T02:30:24.434Z,12.10
2022-10-31T02:32:51.428Z,12.10
2022-10-31T02:35:22.064Z,12.10
2022-10-31T02:37:48.896Z,12.10
2022-10-31T02:40:22.983Z,12.10
2022-10-31T02:46:02.835Z,12.20
2022-10-31T02:48:36.257Z,12.20
2022-10-31T02:51:04.134Z,12.20
2022-10-31T02:53:34.946Z,12.20
2022-10-31T02:56:02.027Z,12.20
2022-10-31T02:58:32.487Z,12.20
2022-10-31T03:00:59.870Z,12.10
2022-10-31T03:03:34.688Z,12.20
2022-10-31T03:06:15.372Z,12.10
2022-10-31T03:08:50.947Z,12.10
2022-10-31T03:11:19.489Z,12.10
2022-10-31T03:14:01.657Z,12.10
2022-10-31T03:16:51.440Z,12.10
2022-10-31T03:19:20.708Z,12.10
2022-10-31T03:21:50.540Z,12.10
2022-10-31T03:24:17.675Z,12.10
2022-10-31T03:26:47.794Z,12.10
2022-10-31T03:29:16.515Z,12.10
2022-10-31T03:31:50.661Z,12.00
2022-10-31T03:34:18.965Z,12.10
2022-10-31T03:36:46.506Z,12.00
2022-10-31T03:39:15.166Z,12.00
2022-10-31T03:41:44.859Z,12.00
2022-10-31T03:44:17.732Z,12.00
2022-10-31T03:46:48.914Z,12.00
2022-10-31T03:49:16.414Z,12.00
2022-10-31T03:51:43.303Z,12.00
2022-10-31T03:54:14.560Z,12.00
2022-10-31T03:56:44.343Z,12.00
2022-10-31T03:59:29.828Z,12.10
2022-10-31T04:01:59.351Z,12.00
2022-10-31T04:04:26.906Z,12.10
2022-10-31T04:06:55.595Z,12.10
2022-10-31T04:09:23.124Z,12.10
2022-10-31T04:11:54.069Z,12.10
2022-10-31T04:14:47.030Z,12.10
2022-10-31T04:17:15.721Z,12.10
2022-10-31T04:19:43.772Z,12.10
2022-10-31T04:22:10.887Z,12.10
2022-10-31T04:24:40.210Z,12.10
2022-10-31T04:27:08.384Z,12.10
2022-10-31T04:29:35.218Z,12.00
2022-10-31T04:32:02.117Z,12.10
2022-10-31T04:34:29.439Z,12.10
2022-10-31T04:36:56.353Z,12.00
2022-10-31T04:39:26.615Z,12.00
2022-10-31T04:42:22.657Z,12.00
2022-10-31T04:44:49.620Z,12.00
2022-10-31T04:47:16.651Z,12.00
2022-10-31T04:49:44.102Z,12.00
2022-10-31T04:52:12.916Z,12.00
2022-10-31T04:54:40.594Z,12.00
2022-10-31T04:57:33.015Z,12.00
2022-10-31T05:00:02.621Z,12.00
2022-10-31T05:02:29.951Z,12.00
2022-10-31T05:04:59.140Z,12.00
2022-10-31T05:07:27.428Z,12.10
2022-10-31T05:09:54.799Z,12.10
2022-10-31T05:12:21.652Z,12.10
2022-10-31T05:15:06.885Z,12.10
2022-10-31T05:17:52.626Z,12.10
2022-10-31T05:20:38.077Z,12.10
2022-10-31T05:23:04.934Z,12.10
2022-10-31T05:25:32.887Z,12.10
2022-10-31T05:28:02.885Z,12.20
2022-10-31T05:30:32.131Z,12.10
2022-10-31T05:32:59.676Z,12.10
2022-10-31T05:35:47.228Z,12.20
2022-10-31T05:38:32.904Z,12.20
2022-10-31T05:41:08.682Z,12.20
2022-10-31T05:43:35.648Z,12.20
2022-10-31T05:46:06.905Z,12.30
2022-10-31T05:48:57.586Z,12.30
2022-10-31T05:51:48.075Z,12.30
2022-10-31T05:54:15.978Z,12.30
2022-10-31T05:56:45.393Z,12.30
2022-10-31T05:59:12.810Z,12.30
2022-10-31T06:01:40.578Z,12.30
2022-10-31T06:04:17.675Z,12.30
2022-10-31T06:06:44.698Z,12.30
2022-10-31T06:09:12.279Z,12.30
2022-10-31T06:11:42.202Z,12.30
2022-10-31T06:14:09.079Z,12.30
2022-10-31T06:16:46.236Z,12.30
2022-10-31T06:19:36.446Z,12.30
2022-10-31T06:22:03.422Z,12.40
2022-10-31T06:24:30.239Z,12.40
2022-10-31T06:27:04.409Z,12.40
2022-10-31T06:29:32.164Z,12.40
2022-10-31T06:32:05.565Z,12.40
2022-10-31T06:34:37.775Z,12.40
2022-10-31T06:37:04.632Z,12.40
2022-10-31T06:39:31.576Z,12.40
2022-10-31T06:41:58.443Z,12.40
2022-10-31T06:44:27.341Z,12.40
2022-10-31T06:46:59.987Z,12.50
2022-10-31T06:49:45.591Z,12.50
2022-10-31T06:52:15.960Z,12.50
2022-10-31T06:54:42.918Z,12.50
2022-10-31T06:57:09.821Z,12.50
2022-10-31T06:59:38.556Z,12.50
2022-10-31T07:02:16.271Z,12.50
2022-10-31T07:04:44.057Z,12.50
2022-10-31T07:07:14.368Z,12.50
2022-10-31T07:09:41.223Z,12.50
2022-10-31T07:12:10.599Z,12.50
2022-10-31T07:14:40.988Z,12.50
2022-10-31T07:17:07.927Z,12.50
2022-10-31T07:19:39.495Z,12.50
2022-10-31T07:22:06.481Z,12.50
2022-10-31T07:24:34.518Z,12.50
2022-10-31T07:27:42.735Z,12.50
2022-10-31T07:30:13.002Z,12.50
2022-10-31T07:32:41.266Z,12.50
2022-10-31T07:35:09.349Z,12.50
2022-10-31T07:38:12.032Z,12.50
2022-10-31T07:40:38.973Z,12.50
2022-10-31T07:43:08.842Z,12.50
2022-10-31T07:46:12.493Z,12.50
2022-10-31T07:48:57.835Z,12.50
2022-10-31T07:51:46.443Z,12.50
2022-10-31T07:54:39.736Z,12.50
2022-10-31T07:57:09.513Z,12.60
2022-10-31T07:59:37.907Z,12.60
2022-10-31T08:02:06.535Z,12.60
2022-10-31T08:04:48.719Z,12.60
2022-10-31T08:10:06.457Z,12.60
2022-10-31T08:12:34.898Z,12.60
2022-10-31T08:15:03.619Z,12.60
2022-10-31T08:17:30.663Z,12.60
2022-10-31T08:20:02.480Z,12.60
2022-10-31T08:22:39.858Z,12.70
2022-10-31T08:25:10.043Z,12.70
2022-10-31T08:27:37.691Z,12.70
2022-10-31T08:30:05.045Z,12.70
2022-10-31T08:32:33.769Z,12.70
2022-10-31T08:35:21.409Z,12.70
2022-10-31T08:38:15.218Z,12.70
2022-10-31T08:40:43.695Z,12.70
2022-10-31T08:43:14.653Z,12.80
2022-10-31T08:45:42.955Z,12.80
2022-10-31T08:48:17.654Z,12.80
2022-10-31T08:50:45.600Z,12.80
2022-10-31T08:53:12.440Z,12.80
2022-10-31T08:55:41.435Z,12.90
2022-10-31T08:58:23.357Z,12.90
2022-10-31T09:00:54.995Z,12.90
2022-10-31T09:03:23.960Z,12.90
2022-10-31T09:05:51.533Z,12.90
2022-10-31T09:08:18.769Z,12.90
2022-10-31T09:10:48.033Z,12.90
2022-10-31T09:13:20.952Z,12.90
2022-10-31T09:16:06.816Z,13.00
2022-10-31T09:18:35.511Z,13.00
2022-10-31T09:21:02.577Z,13.00
2022-10-31T09:23:31.432Z,13.00
2022-10-31T09:26:00.827Z,13.10
2022-10-31T09:28:33.584Z,13.10
2022-10-31T09:31:12.425Z,13.10
2022-10-31T09:34:05.369Z,13.10
2022-10-31T09:36:38.873Z,13.20
2022-10-31T09:39:09.144Z,13.10
2022-10-31T09:41:44.738Z,13.20
2022-10-31T09:44:32.486Z,13.20
2022-10-31T09:47:11.488Z,13.30
2022-10-31T09:49:50.845Z,13.40
2022-10-31T09:52:18.013Z,13.40
2022-10-31T09:54:44.821Z,13.50
2022-10-31T09:57:13.868Z,13.50
2022-10-31T09:59:44.742Z,13.50
2022-10-31T10:02:18.671Z,13.60
2022-10-31T10:04:49.496Z,13.60
2022-10-31T10:07:25.832Z,13.60
2022-10-31T10:10:33.199Z,13.70
2022-10-31T10:13:27.280Z,13.70
2022-10-31T10:15:54.203Z,13.70
2022-10-31T10:18:27.604Z,13.80
2022-10-31T10:21:00.964Z,13.80
2022-10-31T10:23:33.801Z,13.80
2022-10-31T10:26:14.165Z,13.80
2022-10-31T10:28:42.959Z,13.80
2022-10-31T10:31:13.619Z,13.90
2022-10-31T10:34:01.184Z,13.80
2022-10-31T10:36:37.063Z,13.80
2022-10-31T10:39:06.162Z,13.90
2022-10-31T10:41:34.791Z,13.80
2022-10-31T10:44:02.405Z,13.90
2022-10-31T10:46:59.592Z,13.80
2022-10-31T10:49:29.547Z,13.80
2022-10-31T10:54:47.490Z,13.80
2022-10-31T10:57:30.044Z,13.80
2022-10-31T10:59:57.141Z,13.80
2022-10-31T11:02:27.960Z,13.80
2022-10-31T11:04:58.941Z,13.80
2022-10-31T11:07:25.912Z,13.70
2022-10-31T11:10:03.397Z,13.70
2022-10-31T11:12:31.508Z,13.70
2022-10-31T11:15:04.936Z,13.70
2022-10-31T11:17:39.533Z,13.70
2022-10-31T11:20:16.275Z,13.70
2022-10-31T11:22:46.799Z,13.80
2022-10-31T11:25:23.669Z,13.80
2022-10-31T11:28:04.275Z,13.80
2022-10-31T11:30:31.707Z,13.80
2022-10-31T11:32:59.396Z,13.80
2022-10-31T11:35:26.725Z,13.90
2022-10-31T11:37:55.748Z,13.90
2022-10-31T11:40:23.913Z,13.90
2022-10-31T11:42:51.550Z,14.00
2022-10-31T11:45:24.475Z,14.00
2022-10-31T11:47:59.205Z,14.00
2022-10-31T11:50:33.992Z,14.10
2022-10-31T11:53:01.396Z,14.10
2022-10-31T11:55:38.290Z,14.20
2022-10-31T11:58:05.701Z,14.20
2022-10-31T12:00:34.252Z,14.20
2022-10-31T12:03:13.419Z,14.20
2022-10-31T12:05:40.850Z,14.30
2022-10-31T12:08:12.351Z,14.20
2022-10-31T12:10:45.499Z,14.20
2022-10-31T12:13:30.771Z,14.30
2022-10-31T12:16:02.734Z,14.30
2022-10-31T12:18:29.740Z,14.20
2022-10-31T12:20:59.646Z,14.20
2022-10-31T12:23:34.372Z,14.20
2022-10-31T12:26:19.630Z,14.20
2022-10-31T12:28:54.110Z,14.20
2022-10-31T12:31:40.516Z,14.20
2022-10-31T12:34:29.273Z,14.20
2022-10-31T12:37:02.115Z,14.30
2022-10-31T12:39:31.975Z,14.20
2022-10-31T12:42:08.136Z,14.30
2022-10-31T12:45:00.140Z,14.30
2022-10-31T12:47:45.833Z,14.30
2022-10-31T12:50:18.913Z,14.30
2022-10-31T12:52:58.781Z,14.30
2022-10-31T12:55:44.239Z,14.30
2022-10-31T12:58:14.280Z,14.30
2022-10-31T13:00:44.688Z,14.30
2022-10-31T13:03:11.540Z,14.30
2022-10-31T13:05:40.050Z,14.30
2022-10-31T13:08:21.342Z,14.30
2022-10-31T13:11:17.801Z,14.30
2022-10-31T13:13:44.665Z,14.30
2022-10-31T13:16:17.033Z,14.30
2022-10-31T13:18:53.078Z,14.20
2022-10-31T13:21:23.017Z,14.20
2022-10-31T13:23:52.447Z,14.20
2022-10-31T13:26:38.576Z,14.10
2022-10-31T13:29:26.932Z,14.10
2022-10-31T13:31:56.736Z,14.10
2022-10-31T13:34:28.644Z,14.10
2022-10-31T13:37:05.447Z,14.10
2022-10-31T13:39:40.597Z,14.20
2022-10-31T13:42:42.850Z,14.10
2022-10-31T13:45:20.975Z,14.20
2022-10-31T13:47:58.231Z,14.20
2022-10-31T13:50:29.742Z,14.20
2022-10-31T13:53:13.798Z,14.20
2022-10-31T13:55:42.549Z,14.30
2022-10-31T13:58:40.602Z,14.20
2022-10-31T14:01:07.648Z,14.20
2022-10-31T14:04:03.288Z,14.30
2022-10-31T14:06:27.766Z,14.20
2022-10-31T14:08:54.646Z,14.20
2022-10-31T14:11:31.580Z,14.20
2022-10-31T14:14:02.081Z,14.20
2022-10-31T14:16:31.510Z,14.20
2022-10-31T14:19:01.533Z,14.20
2022-10-31T14:21:30.125Z,14.20
2022-10-31T14:23:57.744Z,14.20
2022-10-31T14:26:26.733Z,14.20
2022-10-31T14:29:19.621Z,14.20
2022-10-31T14:31:52.915Z,14.20
2022-10-31T14:34:22.690Z,14.20
2022-10-31T14:36:52.287Z,14.20
2022-10-31T14:39:23.244Z,14.20
2022-10-31T14:41:50.119Z,14.20
2022-10-31T14:44:22.835Z,14.20
2022-10-31T14:47:06.905Z,14.20
2022-10-31T14:49:33.759Z,14.30
2022-10-31T14:52:00.706Z,14.30
2022-10-31T14:54:27.559Z,14.30
2022-10-31T14:56:56.367Z,14.30
2022-10-31T14:59:25.554Z,14.40
2022-10-31T15:01:55.941Z,14.40
2022-10-31T15:04:30.035Z,14.40
2022-10-31T15:07:09.110Z,14.40
2022-10-31T15:09:36.692Z,14.40
2022-10-31T15:12:23.806Z,14.40
2022-10-31T15:14:50.680Z,14.40
2022-10-31T15:17:17.469Z,14.40
2022-10-31T15:19:44.557Z,14.40
2022-10-31T15:22:14.910Z,14.40
2022-10-31T15:24:43.297Z,14.40
2022-10-31T15:27:17.206Z,14.40
2022-10-31T15:29:54.557Z,14.40
2022-10-31T15:32:23.831Z,14.40
2022-10-31T15:34:52.584Z,14.40
2022-10-31T15:37:20.570Z,14.30
2022-10-31T15:39:48.477Z,14.30
2022-10-31T15:42:21.158Z,14.30
2022-10-31T15:44:55.976Z,14.30
2022-10-31T15:47:25.377Z,14.30
2022-10-31T15:49:56.253Z,14.20
2022-10-31T15:52:23.141Z,14.20
2022-10-31T15:54:52.722Z,14.30
2022-10-31T15:57:19.795Z,14.20
2022-10-31T15:59:48.288Z,14.20
2022-10-31T16:02:16.333Z,14.20
2022-10-31T16:04:59.728Z,14.20
2022-10-31T16:07:26.909Z,14.10
2022-10-31T16:10:00.770Z,14.10
2022-10-31T16:12:35.295Z,14.10
2022-10-31T16:15:02.773Z,14.10
2022-10-31T16:17:29.566Z,14.00
2022-10-31T16:20:00.956Z,14.00
2022-10-31T16:22:29.379Z,14.00
2022-10-31T16:25:02.048Z,14.00
2022-10-31T16:27:30.966Z,14.00
2022-10-31T16:29:58.458Z,13.90
2022-10-31T16:32:31.536Z,13.90
2022-10-31T16:35:10.393Z,13.90
2022-10-31T16:37:43.699Z,13.80
2022-10-31T16:40:12.824Z,13.80
2022-10-31T16:42:40.150Z,13.80
2022-10-31T16:45:07.691Z,13.80
2022-10-31T16:47:34.544Z,13.70
2022-10-31T16:50:01.819Z,13.70
2022-10-31T16:52:37.918Z,13.70
2022-10-31T16:55:14.152Z,13.70
2022-10-31T16:57:43.343Z,13.60
2022-10-31T17:00:13.503Z,13.60
2022-10-31T17:02:40.526Z,13.60
2022-10-31T17:05:09.595Z,13.60
2022-10-31T17:07:36.654Z,13.50
2022-10-31T17:10:03.691Z,13.50
2022-10-31T17:12:30.662Z,13.50
2022-10-31T17:14:57.768Z,13.50
2022-10-31T17:17:24.628Z,13.50
2022-10-31T17:19:51.751Z,13.50
2022-10-31T17:22:18.748Z,13.40
2022-10-31T17:24:45.553Z,13.40
2022-10-31T17:27:12.531Z,13.40
2022-10-31T17:29:39.519Z,13.40
2022-10-31T17:32:06.438Z,13.40
2022-10-31T17:34:33.524Z,13.40
2022-10-31T17:37:00.456Z,13.40
2022-10-31T17:39:27.308Z,13.40
2022-10-31T17:41:54.177Z,13.40
2022-10-31T17:44:21.090Z,13.30
2022-10-31T17:46:47.980Z,13.40
2022-10-31T17:49:14.966Z,13.40
2022-10-31T17:51:41.984Z,13.40
2022-10-31T17:54:10.177Z,13.40
2022-10-31T17:56:37.017Z,13.40
2022-10-31T17:59:03.962Z,13.40
2022-10-31T18:01:31.322Z,13.40
2022-10-31T18:03:58.319Z,13.40
2022-10-31T18:06:25.221Z,13.40
2022-10-31T18:08:52.303Z,13.40
2022-10-31T18:11:20.776Z,13.40
2022-10-31T18:13:47.720Z,13.40
2022-10-31T18:16:15.898Z,13.40
2022-10-31T18:18:43.005Z,13.40
2022-10-31T18:21:09.965Z,13.40
2022-10-31T18:23:36.836Z,13.40
2022-10-31T18:26:04.087Z,13.40
2022-10-31T18:28:30.945Z,13.40
2022-10-31T18:31:01.350Z,13.40
2022-10-31T18:33:28.466Z,13.40
2022-10-31T18:35:55.458Z,13.40
2022-10-31T18:38:22.778Z,13.40
2022-10-31T18:40:51.259Z,13.40
2022-10-31T18:43:18.300Z,13.40
2022-10-31T18:45:48.639Z,13.40
2022-10-31T18:48:17.366Z,13.40
2022-10-31T18:50:44.254Z,13.40
2022-10-31T18:53:11.110Z,13.40
2022-10-31T18:55:44.136Z,13.40
2022-10-31T18:58:16.224Z,13.40
2022-10-31T19:00:43.110Z,13.40
2022-10-31T19:03:10.020Z,13.40
2022-10-31T19:05:36.798Z,13.40
2022-10-31T19:08:03.984Z,13.40
2022-10-31T19:10:39.845Z,13.40
2022-10-31T19:13:06.764Z,13.40
2022-10-31T19:15:34.198Z,13.40
2022-10-31T19:18:01.158Z,13.40
2022-10-31T19:20:28.087Z,13.40
2022-10-31T19:22:54.935Z,13.40
2022-10-31T19:25:21.752Z,13.40
2022-10-31T19:27:48.732Z,13.40
2022-10-31T19:30:15.717Z,13.40
2022-10-31T19:32:42.692Z,13.40
2022-10-31T19:35:11.036Z,13.30
2022-10-31T19:37:38.622Z,13.30
2022-10-31T19:40:07.075Z,13.30
2022-10-31T19:42:34.205Z,13.30
2022-10-31T19:45:01.347Z,13.30
2022-10-31T19:47:28.219Z,13.30
2022-10-31T19:49:54.991Z,13.30
2022-10-31T19:52:22.161Z,13.30
2022-10-31T19:54:48.971Z,13.20
2022-10-31T19:57:15.858Z,13.30
2022-10-31T19:59:43.075Z,13.30
2022-10-31T20:02:19.348Z,13.20
2022-10-31T20:04:46.419Z,13.30
2022-10-31T20:07:13.459Z,13.20
2022-10-31T20:09:40.326Z,13.20
2022-10-31T20:12:07.320Z,13.20
2022-10-31T20:14:34.180Z,13.30
2022-10-31T20:17:01.094Z,13.20
2022-10-31T20:19:28.103Z,13.20
2022-10-31T20:21:55.545Z,13.20
2022-10-31T20:24:22.621Z,13.20
2022-10-31T20:26:49.418Z,13.20
2022-10-31T20:29:16.718Z,13.20
2022-10-31T20:31:45.520Z,13.20
2022-10-31T20:34:13.575Z,13.20
2022-10-31T20:36:40.435Z,13.20
2022-10-31T20:39:08.728Z,13.20
2022-10-31T20:41:39.496Z,13.20
2022-10-31T20:44:07.111Z,13.20
2022-10-31T20:46:34.284Z,13.20
2022-10-31T20:49:01.225Z,13.20
2022-10-31T20:51:28.719Z,13.10
2022-10-31T20:53:59.366Z,13.20
2022-10-31T20:56:26.979Z,13.20
2022-10-31T20:58:54.740Z,13.10
2022-10-31T21:01:30.664Z,13.10
2022-10-31T21:03:58.614Z,13.10
2022-10-31T21:06:26.024Z,13.10
2022-10-31T21:08:53.925Z,13.10
2022-10-31T21:11:22.614Z,13.10
2022-10-31T21:13:49.895Z,13.10
2022-10-31T21:16:23.449Z,13.00
2022-10-31T21:18:51.027Z,13.10
2022-10-31T21:21:32.126Z,13.10
2022-10-31T21:24:03.132Z,13.00
2022-10-31T21:26:31.166Z,13.00
2022-10-31T21:28:58.504Z,13.00
2022-10-31T21:31:26.405Z,13.00
2022-10-31T21:33:53.519Z,13.00
2022-10-31T21:36:20.522Z,12.90
2022-10-31T21:38:54.110Z,13.00
2022-10-31T21:41:21.577Z,12.90
2022-10-31T21:43:49.255Z,12.90
2022-10-31T21:46:17.493Z,12.90
2022-10-31T21:48:45.771Z,12.90
2022-10-31T21:51:37.883Z,12.90
2022-10-31T21:54:26.945Z,12.90
2022-10-31T21:56:57.922Z,12.90
2022-10-31T21:59:24.832Z,12.90
2022-10-31T22:01:52.137Z,12.90
2022-10-31T22:04:19.545Z,12.90
2022-10-31T22:06:46.628Z,12.90
2022-10-31T22:09:14.263Z,12.90
2022-10-31T22:11:41.812Z,12.90
2022-10-31T22:14:11.452Z,12.90
2022-10-31T22:16:38.622Z,12.90
2022-10-31T22:19:06.278Z,12.90
2022-10-31T22:21:40.550Z,12.90
2022-10-31T22:24:08.020Z,12.90
2022-10-31T22:26:35.434Z,12.90
2022-10-31T22:29:03.860Z,12.90
2022-10-31T22:31:31.599Z,12.90
2022-10-31T22:33:58.508Z,12.90
2022-10-31T22:36:26.850Z,12.90
2022-10-31T22:38:53.901Z,12.90
2022-10-31T22:41:25.569Z,12.90
2022-10-31T22:43:53.190Z,12.90
2022-10-31T22:46:21.093Z,12.90
2022-10-31T22:48:52.116Z,12.90
2022-10-31T22:51:22.459Z,12.90
2022-10-31T22:53:49.378Z,12.90
2022-10-31T22:56:17.916Z,12.90
2022-10-31T22:58:45.232Z,12.90
2022-10-31T23:01:16.257Z,12.90
2022-10-31T23:03:43.291Z,12.90
2022-10-31T23:06:11.796Z,12.90
2022-10-31T23:08:39.075Z,12.90
2022-10-31T23:11:15.172Z,12.90
2022-10-31T23:14:00.792Z,12.90
2022-10-31T23:16:27.643Z,12.90
2022-10-31T23:18:54.521Z,13.00
2022-10-31T23:21:53.706Z,12.90
2022-10-31T23:24:33.231Z,12.90
2022-10-31T23:27:09.954Z,12.90
2022-10-31T23:29:38.588Z,12.90
2022-10-31T23:32:06.662Z,12.90
2022-10-31T23:34:33.472Z,12.90
2022-10-31T23:37:00.409Z,13.00
2022-10-31T23:39:27.311Z,13.00
2022-10-31T23:41:54.268Z,13.00
2022-10-31T23:44:30.221Z,13.00
2022-10-31T23:46:57.158Z,13.00
2022-10-31T23:49:24.073Z,13.00
2022-10-31T23:51:51.168Z,13.00
2022-10-31T23:54:18.023Z,13.00
2022-10-31T23:56:44.986Z,13.00
2022-10-31T23:59:12.276Z,13.00
